sensor_id;sensor_type;location;lat;lon;timestamp;pressure;altitude;pressure_sealevel;temperature;humidity
45894;BME280;31603;51.148;16.932;2023-03-19T00:02:05;100205.91;;;5.05;100.00
45894;BME280;31603;51.148;16.932;2023-03-19T00:04:33;100211.59;;;4.79;100.00
45894;BME280;31603;51.148;16.932;2023-03-19T00:06:59;100205.66;;;4.59;100.00
45894;BME280;31603;51.148;16.932;2023-03-19T00:09:26;100214.66;;;4.68;100.00
45894;BME280;31603;51.148;16.932;2023-03-19T00:11:53;100215.38;;;4.54;100.00
45894;BME280;31603;51.148;16.932;2023-03-19T00:14:20;100208.03;;;4.71;100.00
45894;BME280;31603;51.148;16.932;2023-03-19T00:16:46;100212.25;;;4.81;100.00
45894;BME280;31603;51.148;16.932;2023-03-19T00:19:14;100221.47;;;4.80;100.00
45894;BME280;31603;51.148;16.932;2023-03-19T00:21:41;100224.53;;;4.77;100.00
45894;BME280;31603;51.148;16.932;2023-03-19T00:24:07;100213.34;;;4.40;100.00
45894;BME280;31603;51.148;16.932;2023-03-19T00:26:35;100229.69;;;4.40;100.00
45894;BME280;31603;51.148;16.932;2023-03-19T00:29:02;100223.03;;;4.34;100.00
45894;BME280;31603;51.148;16.932;2023-03-19T00:31:30;100225.06;;;4.40;100.00
45894;BME280;31603;51.148;16.932;2023-03-19T00:33:57;100222.34;;;4.16;100.00
45894;BME280;31603;51.148;16.932;2023-03-19T00:36:26;100220.44;;;4.24;100.00
45894;BME280;31603;51.148;16.932;2023-03-19T00:38:54;100204.63;;;4.03;100.00
45894;BME280;31603;51.148;16.932;2023-03-19T00:41:21;100216.56;;;4.19;100.00
45894;BME280;31603;51.148;16.932;2023-03-19T00:43:51;100214.16;;;4.24;100.00
45894;BME280;31603;51.148;16.932;2023-03-19T00:46:18;100197.31;;;4.28;100.00
45894;BME280;31603;51.148;16.932;2023-03-19T00:48:44;100200.91;;;4.45;100.00
45894;BME280;31603;51.148;16.932;2023-03-19T00:51:11;100195.28;;;4.47;100.00
45894;BME280;31603;51.148;16.932;2023-03-19T00:53:40;100199.38;;;4.34;100.00
45894;BME280;31603;51.148;16.932;2023-03-19T00:56:08;100195.81;;;4.26;100.00
45894;BME280;31603;51.148;16.932;2023-03-19T00:58:35;100196.47;;;4.20;100.00
45894;BME280;31603;51.148;16.932;2023-03-19T01:01:02;100196.31;;;4.21;100.00
45894;BME280;31603;51.148;16.932;2023-03-19T01:03:29;100195.97;;;4.16;100.00
45894;BME280;31603;51.148;16.932;2023-03-19T01:05:56;100183.19;;;4.08;100.00
45894;BME280;31603;51.148;16.932;2023-03-19T01:08:23;100188.13;;;4.13;100.00
45894;BME280;31603;51.148;16.932;2023-03-19T01:10:52;100179.78;;;4.06;100.00
45894;BME280;31603;51.148;16.932;2023-03-19T01:13:18;100184.38;;;4.06;100.00
45894;BME280;31603;51.148;16.932;2023-03-19T01:15:45;100177.56;;;4.02;100.00
45894;BME280;31603;51.148;16.932;2023-03-19T01:18:12;100186.63;;;4.10;100.00
45894;BME280;31603;51.148;16.932;2023-03-19T01:20:39;100187.78;;;4.24;100.00
45894;BME280;31603;51.148;16.932;2023-03-19T01:23:06;100179.97;;;4.05;100.00
45894;BME280;31603;51.148;16.932;2023-03-19T01:25:33;100186.59;;;3.94;100.00
45894;BME280;31603;51.148;16.932;2023-03-19T01:28:02;100182.34;;;4.08;100.00
45894;BME280;31603;51.148;16.932;2023-03-19T01:30:28;100176.56;;;3.95;100.00
45894;BME280;31603;51.148;16.932;2023-03-19T01:32:54;100176.06;;;4.24;100.00
45894;BME280;31603;51.148;16.932;2023-03-19T01:35:21;100178.94;;;3.98;100.00
45894;BME280;31603;51.148;16.932;2023-03-19T01:37:47;100182.31;;;3.92;100.00
45894;BME280;31603;51.148;16.932;2023-03-19T01:40:15;100173.97;;;3.77;100.00
45894;BME280;31603;51.148;16.932;2023-03-19T01:42:53;100188.47;;;3.85;100.00
45894;BME280;31603;51.148;16.932;2023-03-19T01:45:31;100182.69;;;4.05;100.00
45894;BME280;31603;51.148;16.932;2023-03-19T01:47:58;100177.41;;;3.95;100.00
45894;BME280;31603;51.148;16.932;2023-03-19T01:50:28;100181.00;;;4.04;100.00
45894;BME280;31603;51.148;16.932;2023-03-19T01:52:59;100186.59;;;4.02;100.00
45894;BME280;31603;51.148;16.932;2023-03-19T01:55:26;100186.75;;;4.17;100.00
45894;BME280;31603;51.148;16.932;2023-03-19T01:57:53;100191.19;;;4.10;100.00
45894;BME280;31603;51.148;16.932;2023-03-19T02:00:20;100190.66;;;4.06;100.00
45894;BME280;31603;51.148;16.932;2023-03-19T02:02:51;100192.53;;;3.98;100.00
45894;BME280;31603;51.148;16.932;2023-03-19T02:05:19;100184.72;;;4.03;100.00
45894;BME280;31603;51.148;16.932;2023-03-19T02:07:51;100187.63;;;4.01;100.00
45894;BME280;31603;51.148;16.932;2023-03-19T02:10:18;100193.91;;;4.10;100.00
45894;BME280;31603;51.148;16.932;2023-03-19T02:12:46;100184.38;;;4.06;100.00
45894;BME280;31603;51.148;16.932;2023-03-19T02:15:13;100183.19;;;4.08;100.00
45894;BME280;31603;51.148;16.932;2023-03-19T02:17:40;100197.31;;;4.12;100.00
45894;BME280;31603;51.148;16.932;2023-03-19T02:20:12;100196.28;;;3.97;100.00
45894;BME280;31603;51.148;16.932;2023-03-19T02:22:47;100205.25;;;3.73;100.00
45894;BME280;31603;51.148;16.932;2023-03-19T02:25:22;100199.00;;;3.89;100.00
45894;BME280;31603;51.148;16.932;2023-03-19T02:27:51;100203.38;;;3.73;100.00
45894;BME280;31603;51.148;16.932;2023-03-19T02:30:23;100198.25;;;3.62;100.00
45894;BME280;31603;51.148;16.932;2023-03-19T02:32:50;100192.16;;;3.60;100.00
45894;BME280;31603;51.148;16.932;2023-03-19T02:35:17;100189.34;;;3.44;100.00
45894;BME280;31603;51.148;16.932;2023-03-19T02:37:44;100199.41;;;3.51;100.00
45894;BME280;31603;51.148;16.932;2023-03-19T02:40:13;100189.72;;;3.49;100.00
45894;BME280;31603;51.148;16.932;2023-03-19T02:42:43;100191.78;;;3.63;100.00
45894;BME280;31603;51.148;16.932;2023-03-19T02:45:12;100203.34;;;3.57;100.00
45894;BME280;31603;51.148;16.932;2023-03-19T02:47:39;100197.00;;;3.48;100.00
45894;BME280;31603;51.148;16.932;2023-03-19T02:50:07;100197.59;;;3.68;100.00
45894;BME280;31603;51.148;16.932;2023-03-19T02:52:33;100203.41;;;3.81;100.00
45894;BME280;31603;51.148;16.932;2023-03-19T02:55:01;100204.94;;;3.84;100.00
45894;BME280;31603;51.148;16.932;2023-03-19T02:57:27;100189.13;;;3.88;100.00
45894;BME280;31603;51.148;16.932;2023-03-19T02:59:53;100196.63;;;3.85;100.00
45894;BME280;31603;51.148;16.932;2023-03-19T03:02:22;100194.22;;;3.99;100.00
45894;BME280;31603;51.148;16.932;2023-03-19T03:04:48;100196.56;;;3.77;100.00
45894;BME280;31603;51.148;16.932;2023-03-19T03:07:26;100193.84;;;3.77;100.00
45894;BME280;31603;51.148;16.932;2023-03-19T03:09:53;100199.47;;;3.76;100.00
45894;BME280;31603;51.148;16.932;2023-03-19T03:12:21;100200.97;;;3.62;100.00
45894;BME280;31603;51.148;16.932;2023-03-19T03:14:50;100195.53;;;3.62;100.00
45894;BME280;31603;51.148;16.932;2023-03-19T03:17:18;100189.78;;;3.73;100.00
45894;BME280;31603;51.148;16.932;2023-03-19T03:19:45;100183.00;;;3.85;100.00
45894;BME280;31603;51.148;16.932;2023-03-19T03:22:12;100203.03;;;3.76;100.00
45894;BME280;31603;51.148;16.932;2023-03-19T03:24:39;100200.31;;;3.60;100.00
45894;BME280;31603;51.148;16.932;2023-03-19T03:27:05;100197.00;;;3.48;100.00
45894;BME280;31603;51.148;16.932;2023-03-19T03:29:32;100200.97;;;3.62;100.00
45894;BME280;31603;51.148;16.932;2023-03-19T03:31:58;100201.50;;;3.66;100.00
45894;BME280;31603;51.148;16.932;2023-03-19T03:34:25;100208.41;;;3.52;100.00
45894;BME280;31603;51.148;16.932;2023-03-19T03:36:55;100196.50;;;3.45;100.00
45894;BME280;31603;51.148;16.932;2023-03-19T03:39:22;100202.97;;;3.52;100.00
45894;BME280;31603;51.148;16.932;2023-03-19T03:41:49;100205.03;;;3.58;100.00
45894;BME280;31603;51.148;16.932;2023-03-19T03:44:15;100204.31;;;3.48;100.00
45894;BME280;31603;51.148;16.932;2023-03-19T03:46:43;100209.81;;;3.22;100.00
45894;BME280;31603;51.148;16.932;2023-03-19T03:49:09;100203.84;;;3.10;100.00
45894;BME280;31603;51.148;16.932;2023-03-19T03:51:37;100204.41;;;3.22;100.00
45894;BME280;31603;51.148;16.932;2023-03-19T03:54:05;100199.56;;;3.07;100.00
45894;BME280;31603;51.148;16.932;2023-03-19T03:56:32;100205.75;;;3.18;100.00
45894;BME280;31603;51.148;16.932;2023-03-19T03:58:58;100194.66;;;3.11;100.00
45894;BME280;31603;51.148;16.932;2023-03-19T04:01:25;100211.22;;;3.34;100.00
45894;BME280;31603;51.148;16.932;2023-03-19T04:03:52;100199.13;;;3.20;100.00
45894;BME280;31603;51.148;16.932;2023-03-19T04:06:21;100200.81;;;3.21;100.00
45894;BME280;31603;51.148;16.932;2023-03-19T04:08:48;100209.25;;;3.02;100.00
45894;BME280;31603;51.148;16.932;2023-03-19T04:11:19;100213.97;;;3.00;100.00
45894;BME280;31603;51.148;16.932;2023-03-19T04:13:48;100206.91;;;3.15;100.00
45894;BME280;31603;51.148;16.932;2023-03-19T04:16:15;100201.44;;;3.07;100.00
45894;BME280;31603;51.148;16.932;2023-03-19T04:18:42;100193.22;;;2.91;100.00
45894;BME280;31603;51.148;16.932;2023-03-19T04:21:08;100197.03;;;3.06;100.00
45894;BME280;31603;51.148;16.932;2023-03-19T04:23:35;100193.88;;;2.93;100.00
45894;BME280;31603;51.148;16.932;2023-03-19T04:26:03;100200.09;;;3.11;100.00
45894;BME280;31603;51.148;16.932;2023-03-19T04:28:33;100197.88;;;3.49;100.00
45894;BME280;31603;51.148;16.932;2023-03-19T04:31:00;100201.22;;;3.34;100.00
45894;BME280;31603;51.148;16.932;2023-03-19T04:33:27;100202.16;;;3.17;100.00
45894;BME280;31603;51.148;16.932;2023-03-19T04:35:54;100186.38;;;3.12;100.00
45894;BME280;31603;51.148;16.932;2023-03-19T04:38:21;100181.47;;;3.16;100.00
45894;BME280;31603;51.148;16.932;2023-03-19T04:40:52;100192.97;;;3.10;100.00
45894;BME280;31603;51.148;16.932;2023-03-19T04:43:20;100194.88;;;3.18;100.00
45894;BME280;31603;51.148;16.932;2023-03-19T04:45:49;100182.59;;;3.05;100.00
45894;BME280;31603;51.148;16.932;2023-03-19T04:48:16;100186.31;;;3.04;100.00
45894;BME280;31603;51.148;16.932;2023-03-19T04:50:44;100180.09;;;2.86;100.00
45894;BME280;31603;51.148;16.932;2023-03-19T04:53:11;100196.47;;;2.94;100.00
45894;BME280;31603;51.148;16.932;2023-03-19T04:55:38;100195.97;;;2.99;100.00
45894;BME280;31603;51.148;16.932;2023-03-19T04:58:07;100190.22;;;3.02;100.00
45894;BME280;31603;51.148;16.932;2023-03-19T05:00:35;100198.13;;;2.87;100.00
45894;BME280;31603;51.148;16.932;2023-03-19T05:03:03;100196.88;;;2.81;100.00
45894;BME280;31603;51.148;16.932;2023-03-19T05:05:29;100198.59;;;2.82;100.00
45894;BME280;31603;51.148;16.932;2023-03-19T05:07:56;100189.44;;;2.83;100.00
45894;BME280;31603;51.148;16.932;2023-03-19T05:10:24;100190.66;;;2.89;100.00
45894;BME280;31603;51.148;16.932;2023-03-19T05:12:53;100197.25;;;2.86;100.00
45894;BME280;31603;51.148;16.932;2023-03-19T05:15:19;100200.66;;;2.88;100.00
45894;BME280;31603;51.148;16.932;2023-03-19T05:17:46;100206.41;;;2.85;100.00
45894;BME280;31603;51.148;16.932;2023-03-19T05:20:14;100202.25;;;2.99;100.00
45894;BME280;31603;51.148;16.932;2023-03-19T05:22:47;100202.53;;;2.88;100.00
45894;BME280;31603;51.148;16.932;2023-03-19T05:25:14;100206.72;;;2.82;100.00
45894;BME280;31603;51.148;16.932;2023-03-19T05:27:41;100208.31;;;2.93;100.00
45894;BME280;31603;51.148;16.932;2023-03-19T05:30:08;100208.22;;;3.03;100.00
45894;BME280;31603;51.148;16.932;2023-03-19T05:32:35;100210.09;;;3.02;100.00
45894;BME280;31603;51.148;16.932;2023-03-19T05:35:01;100211.59;;;3.05;100.00
45894;BME280;31603;51.148;16.932;2023-03-19T05:37:29;100209.78;;;3.13;100.00
45894;BME280;31603;51.148;16.932;2023-03-19T05:39:56;100202.81;;;3.11;100.00
45894;BME280;31603;51.148;16.932;2023-03-19T05:42:22;100194.41;;;3.30;100.00
45894;BME280;31603;51.148;16.932;2023-03-19T05:44:49;100208.69;;;3.32;100.00
45894;BME280;31603;51.148;16.932;2023-03-19T05:47:15;100212.13;;;3.43;100.00
45894;BME280;31603;51.148;16.932;2023-03-19T05:49:42;100224.03;;;3.42;100.00
45894;BME280;31603;51.148;16.932;2023-03-19T05:52:09;100212.13;;;3.43;100.00
45894;BME280;31603;51.148;16.932;2023-03-19T05:54:37;100218.97;;;3.55;100.00
45894;BME280;31603;51.148;16.932;2023-03-19T05:57:05;100212.53;;;3.64;100.00
45894;BME280;31603;51.148;16.932;2023-03-19T05:59:32;100214.13;;;3.91;100.00
45894;BME280;31603;51.148;16.932;2023-03-19T06:01:58;100223.19;;;4.16;100.00
45894;BME280;31603;51.148;16.932;2023-03-19T06:04:25;100225.22;;;4.30;100.00
45894;BME280;31603;51.148;16.932;2023-03-19T06:06:53;100222.34;;;4.48;100.00
45894;BME280;31603;51.148;16.932;2023-03-19T06:09:20;100210.91;;;4.61;100.00
45894;BME280;31603;51.148;16.932;2023-03-19T06:11:51;100216.81;;;4.97;100.00
45894;BME280;31603;51.148;16.932;2023-03-19T06:14:17;100206.09;;;4.96;100.00
45894;BME280;31603;51.148;16.932;2023-03-19T06:16:58;100208.41;;;5.15;100.00
45894;BME280;31603;51.148;16.932;2023-03-19T06:19:27;100217.84;;;5.52;100.00
45894;BME280;31603;51.148;16.932;2023-03-19T06:21:53;100210.34;;;5.77;100.00
45894;BME280;31603;51.148;16.932;2023-03-19T06:24:20;100219.00;;;5.89;100.00
45894;BME280;31603;51.148;16.932;2023-03-19T06:26:56;100216.88;;;6.07;100.00
45894;BME280;31603;51.148;16.932;2023-03-19T06:29:24;100219.19;;;6.18;100.00
45894;BME280;31603;51.148;16.932;2023-03-19T06:31:51;100230.78;;;6.43;100.00
45894;BME280;31603;51.148;16.932;2023-03-19T06:34:19;100225.16;;;6.60;100.00
45894;BME280;31603;51.148;16.932;2023-03-19T06:36:46;100218.91;;;6.89;100.00
45894;BME280;31603;51.148;16.932;2023-03-19T06:39:13;100220.81;;;6.88;100.00
45894;BME280;31603;51.148;16.932;2023-03-19T06:41:40;100224.38;;;6.89;100.00
45894;BME280;31603;51.148;16.932;2023-03-19T06:44:09;100225.81;;;6.99;100.00
45894;BME280;31603;51.148;16.932;2023-03-19T06:46:36;100225.66;;;7.16;100.00
45894;BME280;31603;51.148;16.932;2023-03-19T06:49:04;100221.28;;;7.21;100.00
45894;BME280;31603;51.148;16.932;2023-03-19T06:51:31;100239.91;;;7.41;100.00
45894;BME280;31603;51.148;16.932;2023-03-19T06:53:57;100243.44;;;7.86;100.00
45894;BME280;31603;51.148;16.932;2023-03-19T06:56:24;100243.59;;;7.99;100.00
45894;BME280;31603;51.148;16.932;2023-03-19T06:58:51;100246.88;;;7.94;100.00
45894;BME280;31603;51.148;16.932;2023-03-19T07:01:19;100234.28;;;8.36;100.00
45894;BME280;31603;51.148;16.932;2023-03-19T07:03:46;100242.34;;;8.38;97.95
45894;BME280;31603;51.148;16.932;2023-03-19T07:06:14;100238.41;;;8.26;97.90
45894;BME280;31603;51.148;16.932;2023-03-19T07:09:39;63776.66;;;-146.80;100.00
45894;BME280;31603;51.148;16.932;2023-03-19T07:13:04;63776.66;;;-146.80;100.00
45894;BME280;31603;51.148;16.932;2023-03-19T07:16:31;63776.66;;;-146.80;100.00
45894;BME280;31603;51.148;16.932;2023-03-19T07:19:56;63776.66;;;-146.80;100.00
45894;BME280;31603;51.148;16.932;2023-03-19T07:23:21;63776.66;;;-146.80;100.00
45894;BME280;31603;51.148;16.932;2023-03-19T07:26:46;63776.66;;;-146.80;100.00
45894;BME280;31603;51.148;16.932;2023-03-19T07:30:12;63776.66;;;-146.80;100.00
45894;BME280;31603;51.148;16.932;2023-03-19T07:33:39;63776.66;;;-146.80;100.00
45894;BME280;31603;51.148;16.932;2023-03-19T07:37:05;63776.66;;;-146.80;100.00
45894;BME280;31603;51.148;16.932;2023-03-19T07:39:31;100272.84;;;10.03;72.62
45894;BME280;31603;51.148;16.932;2023-03-19T07:42:56;63776.66;;;-146.80;100.00
45894;BME280;31603;51.148;16.932;2023-03-19T07:46:22;63776.66;;;-146.80;100.00
45894;BME280;31603;51.148;16.932;2023-03-19T07:49:48;63776.66;;;-146.80;100.00
45894;BME280;31603;51.148;16.932;2023-03-19T07:53:13;63776.66;;;-146.80;100.00
45894;BME280;31603;51.148;16.932;2023-03-19T07:56:39;63776.66;;;-146.80;100.00
45894;BME280;31603;51.148;16.932;2023-03-19T08:00:04;63776.66;;;-146.80;100.00
45894;BME280;31603;51.148;16.932;2023-03-19T08:03:30;63776.66;;;-146.80;100.00
45894;BME280;31603;51.148;16.932;2023-03-19T08:06:57;63776.66;;;-146.80;100.00
45894;BME280;31603;51.148;16.932;2023-03-19T08:10:23;63776.66;;;-146.80;100.00
45894;BME280;31603;51.148;16.932;2023-03-19T08:13:48;63776.66;;;-146.80;100.00
45894;BME280;31603;51.148;16.932;2023-03-19T08:17:14;63776.66;;;-146.80;100.00
45894;BME280;31603;51.148;16.932;2023-03-19T08:20:39;63776.66;;;-146.80;100.00
45894;BME280;31603;51.148;16.932;2023-03-19T08:24:11;63776.66;;;-146.80;100.00
45894;BME280;31603;51.148;16.932;2023-03-19T08:27:36;63776.66;;;-146.80;100.00
45894;BME280;31603;51.148;16.932;2023-03-19T08:31:05;63776.66;;;-146.80;100.00
45894;BME280;31603;51.148;16.932;2023-03-19T08:34:31;63776.66;;;-146.80;100.00
45894;BME280;31603;51.148;16.932;2023-03-19T08:37:56;63776.66;;;-146.80;100.00
45894;BME280;31603;51.148;16.932;2023-03-19T08:41:22;63776.66;;;-146.80;100.00
45894;BME280;31603;51.148;16.932;2023-03-19T08:44:48;63776.66;;;-146.80;100.00
45894;BME280;31603;51.148;16.932;2023-03-19T08:48:13;63776.66;;;-146.80;100.00
45894;BME280;31603;51.148;16.932;2023-03-19T08:51:38;63776.66;;;-146.80;100.00
45894;BME280;31603;51.148;16.932;2023-03-19T08:55:04;63776.66;;;-146.80;100.00
45894;BME280;31603;51.148;16.932;2023-03-19T08:58:31;63776.66;;;-146.80;100.00
45894;BME280;31603;51.148;16.932;2023-03-19T09:01:59;63776.66;;;-146.80;100.00
45894;BME280;31603;51.148;16.932;2023-03-19T09:05:25;63776.66;;;-146.80;100.00
45894;BME280;31603;51.148;16.932;2023-03-19T09:08:50;63776.66;;;-146.80;100.00
45894;BME280;31603;51.148;16.932;2023-03-19T09:12:16;63776.66;;;-146.80;100.00
45894;BME280;31603;51.148;16.932;2023-03-19T09:15:43;63776.66;;;-146.80;100.00
45894;BME280;31603;51.148;16.932;2023-03-19T09:19:08;63776.66;;;-146.80;100.00
45894;BME280;31603;51.148;16.932;2023-03-19T09:22:33;63776.66;;;-146.80;100.00
45894;BME280;31603;51.148;16.932;2023-03-19T09:25:58;63776.66;;;-146.80;100.00
45894;BME280;31603;51.148;16.932;2023-03-19T09:29:23;63776.66;;;-146.80;100.00
45894;BME280;31603;51.148;16.932;2023-03-19T09:32:49;63776.66;;;-146.80;100.00
45894;BME280;31603;51.148;16.932;2023-03-19T09:36:14;63776.66;;;-146.80;100.00
45894;BME280;31603;51.148;16.932;2023-03-19T09:39:41;63776.66;;;-146.80;100.00
45894;BME280;31603;51.148;16.932;2023-03-19T09:43:34;63776.66;;;-146.80;100.00
45894;BME280;31603;51.148;16.932;2023-03-19T09:47:11;63776.66;;;-146.80;100.00
45894;BME280;31603;51.148;16.932;2023-03-19T09:50:45;63776.66;;;-146.80;100.00
45894;BME280;31603;51.148;16.932;2023-03-19T09:54:17;63776.66;;;-146.80;100.00
45894;BME280;31603;51.148;16.932;2023-03-19T09:57:44;63776.66;;;-146.80;100.00
45894;BME280;31603;51.148;16.932;2023-03-19T10:01:21;63776.66;;;-146.80;100.00
45894;BME280;31603;51.148;16.932;2023-03-19T10:05:00;63776.66;;;-146.80;100.00
45894;BME280;31603;51.148;16.932;2023-03-19T10:08:49;63776.66;;;-146.80;100.00
45894;BME280;31603;51.148;16.932;2023-03-19T10:12:33;63776.66;;;-146.80;100.00
45894;BME280;31603;51.148;16.932;2023-03-19T10:16:12;63776.66;;;-146.80;100.00
45894;BME280;31603;51.148;16.932;2023-03-19T10:19:46;63776.66;;;-146.80;100.00
45894;BME280;31603;51.148;16.932;2023-03-19T10:23:21;63776.66;;;-146.80;100.00
45894;BME280;31603;51.148;16.932;2023-03-19T10:26:50;63776.66;;;-146.80;100.00
45894;BME280;31603;51.148;16.932;2023-03-19T10:30:21;63776.66;;;-146.80;100.00
45894;BME280;31603;51.148;16.932;2023-03-19T10:33:52;63776.66;;;-146.80;100.00
45894;BME280;31603;51.148;16.932;2023-03-19T10:37:25;63776.66;;;-146.80;100.00
45894;BME280;31603;51.148;16.932;2023-03-19T10:41:01;63776.66;;;-146.80;100.00
45894;BME280;31603;51.148;16.932;2023-03-19T10:44:30;63776.66;;;-146.80;100.00
45894;BME280;31603;51.148;16.932;2023-03-19T10:47:56;63776.66;;;-146.80;100.00
45894;BME280;31603;51.148;16.932;2023-03-19T10:51:27;63776.66;;;-146.80;100.00
45894;BME280;31603;51.148;16.932;2023-03-19T10:55:00;63776.66;;;-146.80;100.00
45894;BME280;31603;51.148;16.932;2023-03-19T10:58:27;63776.66;;;-146.80;100.00
45894;BME280;31603;51.148;16.932;2023-03-19T11:01:54;63776.66;;;-146.80;100.00
45894;BME280;31603;51.148;16.932;2023-03-19T11:05:22;63776.66;;;-146.80;100.00
45894;BME280;31603;51.148;16.932;2023-03-19T11:08:54;63776.66;;;-146.80;100.00
45894;BME280;31603;51.148;16.932;2023-03-19T11:12:21;63776.66;;;-146.80;100.00
45894;BME280;31603;51.148;16.932;2023-03-19T11:15:50;63776.66;;;-146.80;100.00
45894;BME280;31603;51.148;16.932;2023-03-19T11:19:20;63776.66;;;-146.80;100.00
45894;BME280;31603;51.148;16.932;2023-03-19T11:23:02;63776.66;;;-146.80;100.00
45894;BME280;31603;51.148;16.932;2023-03-19T11:26:32;63776.66;;;-146.80;100.00
45894;BME280;31603;51.148;16.932;2023-03-19T11:30:02;63776.66;;;-146.80;100.00
45894;BME280;31603;51.148;16.932;2023-03-19T11:33:00;100175.09;;;18.82;33.69
45894;BME280;31603;51.148;16.932;2023-03-19T11:36:30;63776.66;;;-146.80;100.00
45894;BME280;31603;51.148;16.932;2023-03-19T11:40:06;63776.66;;;-146.80;100.00
45894;BME280;31603;51.148;16.932;2023-03-19T11:43:48;63776.66;;;-146.80;100.00
45894;BME280;31603;51.148;16.932;2023-03-19T11:47:22;63776.66;;;-146.80;100.00
45894;BME280;31603;51.148;16.932;2023-03-19T11:51:01;63776.66;;;-146.80;100.00
45894;BME280;31603;51.148;16.932;2023-03-19T11:54:35;63776.66;;;-146.80;100.00
45894;BME280;31603;51.148;16.932;2023-03-19T11:58:12;63776.66;;;-146.80;100.00
45894;BME280;31603;51.148;16.932;2023-03-19T12:01:53;63776.66;;;-146.80;100.00
45894;BME280;31603;51.148;16.932;2023-03-19T12:05:28;63776.66;;;-146.80;100.00
45894;BME280;31603;51.148;16.932;2023-03-19T12:09:06;63776.66;;;-146.80;100.00
45894;BME280;31603;51.148;16.932;2023-03-19T12:12:41;63776.66;;;-146.80;100.00
45894;BME280;31603;51.148;16.932;2023-03-19T12:16:16;63776.66;;;-146.80;100.00
45894;BME280;31603;51.148;16.932;2023-03-19T12:19:53;63776.66;;;-146.80;100.00
45894;BME280;31603;51.148;16.932;2023-03-19T12:22:50;100175.09;;;18.82;33.69
45894;BME280;31603;51.148;16.932;2023-03-19T12:26:26;63776.66;;;-146.80;100.00
45894;BME280;31603;51.148;16.932;2023-03-19T12:30:11;63776.66;;;-146.80;100.00
45894;BME280;31603;51.148;16.932;2023-03-19T12:33:43;63776.66;;;-146.80;100.00
45894;BME280;31603;51.148;16.932;2023-03-19T12:36:16;100146.25;;;18.39;33.71
45894;BME280;31603;51.148;16.932;2023-03-19T12:38:49;100145.81;;;18.25;34.27
45894;BME280;31603;51.148;16.932;2023-03-19T12:41:22;100140.41;;;18.40;33.63
45894;BME280;31603;51.148;16.932;2023-03-19T12:44:53;63776.66;;;-146.80;100.00
45894;BME280;31603;51.148;16.932;2023-03-19T12:48:23;63776.66;;;-146.80;100.00
45894;BME280;31603;51.148;16.932;2023-03-19T12:51:52;63776.66;;;-146.80;100.00
45894;BME280;31603;51.148;16.932;2023-03-19T12:55:22;63776.66;;;-146.80;100.00
45894;BME280;31603;51.148;16.932;2023-03-19T12:58:53;63776.66;;;-146.80;100.00
45894;BME280;31603;51.148;16.932;2023-03-19T13:02:25;63776.66;;;-146.80;100.00
45894;BME280;31603;51.148;16.932;2023-03-19T13:05:54;63776.66;;;-146.80;100.00
45894;BME280;31603;51.148;16.932;2023-03-19T13:09:27;63776.66;;;-146.80;100.00
45894;BME280;31603;51.148;16.932;2023-03-19T13:12:54;63776.66;;;-146.80;100.00
45894;BME280;31603;51.148;16.932;2023-03-19T13:16:20;63776.66;;;-146.80;100.00
45894;BME280;31603;51.148;16.932;2023-03-19T13:19:56;63776.66;;;-146.80;100.00
45894;BME280;31603;51.148;16.932;2023-03-19T13:23:23;63776.66;;;-146.80;100.00
45894;BME280;31603;51.148;16.932;2023-03-19T13:26:50;63776.66;;;-146.80;100.00
45894;BME280;31603;51.148;16.932;2023-03-19T13:30:17;63776.66;;;-146.80;100.00
45894;BME280;31603;51.148;16.932;2023-03-19T13:33:48;63776.66;;;-146.80;100.00
45894;BME280;31603;51.148;16.932;2023-03-19T13:37:18;63776.66;;;-146.80;100.00
45894;BME280;31603;51.148;16.932;2023-03-19T13:40:46;63776.66;;;-146.80;100.00
45894;BME280;31603;51.148;16.932;2023-03-19T13:44:40;63776.66;;;-146.80;100.00
45894;BME280;31603;51.148;16.932;2023-03-19T13:48:34;63776.66;;;-146.80;100.00
45894;BME280;31603;51.148;16.932;2023-03-19T13:55:52;63776.66;;;-146.80;100.00
